Impacts METAR Board
IDs:

KMSP - Minneapolis-St Paul, MN, US

Updated at: 1200 UTC 16 Sep 2019
Potential Impact None Slight Moderate High
Time 16/00Z 16/01Z 16/02Z 16/03Z 16/04Z 16/05Z 16/06Z 16/07Z 16/08Z 16/09Z 16/10Z 16/11Z 16/12Z
Temp80 79 76 72 70 69 68 67 66 65 64 63 63
Dewpt63 63 64 64 64 64 63 63 62 61 60 60 59
Altim29.98 29.98 29.99 30.00 30.01 30.01 30.01 30.02 30.03 30.04 30.04 30.04 30.04
VIS10 10 10 10 10 10 10 10 10 10 10 10 10
CIG-- -- -- -- -- -- -- -- -- -- -- -- --
CoverFEWCLRCLRCLRCLRCLRCLRCLRCLRCLRCLRCLRFEW
FltCatVFRVFRVFRVFRVFRVFRVFRVFRVFRVFRVFRVFRVFR
WX--------------------------
WDir21000150170140140130130110130120120
WSpd5 3 4 4 5 6 5 4 4 6 4 7 7
WGst-- -- -- -- -- -- -- -- -- -- -- -- --
Raw hourly METARs
KMSP 152353Z 21005KT 10SM FEW250 27/17 A2998 RMK AO2 SLP149 T02670172 10278 20239 53002 $
KMSP 160053Z VRB03KT 10SM CLR 26/17 A2998 RMK AO2 SLP148 T02610172 $
KMSP 160153Z VRB04KT 10SM CLR 24/18 A2999 RMK AO2 SLP152 T02440178 $
KMSP 160253Z 15004KT 10SM CLR 22/18 A3000 RMK AO2 SLP154 T02220178 53005 $
KMSP 160353Z 17005KT 10SM CLR 21/18 A3001 RMK AO2 SLP158 T02110178 $
KMSP 160453Z 14006KT 10SM CLR 21/18 A3001 RMK AO2 SLP157 T02060178 $
KMSP 160553Z 14005KT 10SM CLR 20/17 A3001 RMK AO2 SLP158 T02000172 10267 20200 402780167 51003 $
KMSP 160653Z 13004KT 10SM CLR 19/17 A3002 RMK AO2 SLP163 T01940172 $
KMSP 160753Z 13004KT 10SM CLR 19/17 A3003 RMK AO2 SLP164 T01890167 $
KMSP 160853Z 11006KT 10SM CLR 18/16 A3004 RMK AO2 SLP167 T01830161 51009 $
KMSP 160953Z 13004KT 10SM CLR 18/16 A3004 RMK AO2 SLP169 T01780156 $
KMSP 161053Z 12007KT 10SM CLR 17/16 A3004 RMK AO2 SLP170 T01720156 $
KMSP 161153Z 12007KT 10SM FEW250 17/15 A3004 RMK AO2 SLP169 T01720150 10200 20172 50002 $



Page loaded:  12:03 UTC  |   05:03 AM Pacific  |   06:03 AM Mountain  |   07:03 AM Central  |   08:03 AM Eastern

 

ADVISORIES

FORECASTS

FORECASTS

OBSERVATIONS

USER TOOLS

ABOUT US